PWSweather.com
Personal Weather Stations
Station Observations
MENWDWX1
Menstrie, ScotlandGB

MenstrieScotlandGB

Lat: 56.148322, Lon: -3.85483

Elevation: 62

Station Type: Davis Vantage Pro 2

Latest ConditionsUpdated 6:10:01 AM GMT Thursday, Oct 18, 2018
Currently Today's Max Today's Min Today's Average
Temperature 36.3°F2.4°C 39.5°F4.2°C 33.8°F1.0°C 35.8°F2.1°C
Dew Point 30.7°F-0.7°C 33.2°F0.7°C 28.0°F-2.2°C 30.0°F-1.1°C
Winds 1.2 mph NW1.9 kmh NW 2.3 mph -3.7 kmh - - 0.7 mph 1.1 kmh
Wind Gusts 1.2 mph1.9 kmh 3.5 mph5.6 kmh - -
Humidity 80% 80% 78% 79%
Pressure 30.34 in1027.4 mb 30.34 in1027.4 mb 30.29 in1025.7 mb -
Hour Temp Dew Point Humidity Winds Wind Gusts Pressure Precip Precip Rate Daily Precip Total
06:10 AM 36.3°F2.4°C 30.7°F-0.7°C 80% 1.2 mph NW1.9 kmh NW 1.2 mph1.9 kmh 30.34 in1027.4 mb - 0.00 in0.0 mm 0.00 in0.0 mm
06:05 AM 36.0°F2.2°C 30.4°F-0.9°C 80% 1.2 mph NW1.9 kmh NW 2.3 mph3.7 kmh 30.34 in1027.4 mb - 0.00 in0.0 mm 0.00 in0.0 mm
06:00 AM 35.8°F2.1°C 30.2°F-1.0°C 80% 1.2 mph NW1.9 kmh NW 3.5 mph5.6 kmh 30.34 in1027.4 mb - 0.00 in0.0 mm 0.00 in0.0 mm
05:55 AM 35.6°F2.0°C 30.0°F-1.1°C 80% Calm Calm -- 30.34 in1027.4 mb - 0.00 in0.0 mm 0.00 in0.0 mm
05:50 AM 35.5°F1.9°C 30.0°F-1.1°C 80% Calm Calm -- 30.34 in1027.4 mb - 0.00 in0.0 mm 0.00 in0.0 mm
05:45 AM 35.6°F2.0°C 30.0°F-1.1°C 80% Calm Calm -- 30.34 in1027.4 mb - 0.00 in0.0 mm 0.00 in0.0 mm
05:40 AM 35.6°F2.0°C 30.0°F-1.1°C 80% Calm Calm -- 30.34 in1027.4 mb - 0.00 in0.0 mm 0.00 in0.0 mm
05:35 AM 35.7°F2.1°C 30.1°F-1.1°C 80% Calm Calm -- 30.34 in1027.4 mb - 0.00 in0.0 mm 0.00 in0.0 mm
05:30 AM 35.9°F2.2°C 30.3°F-0.9°C 80% 2.3 mph ENE3.7 kmh ENE 3.5 mph5.6 kmh 30.33 in1027.1 mb - 0.00 in0.0 mm 0.00 in0.0 mm
05:25 AM 35.9°F2.2°C 30.4°F-0.9°C 80% Calm Calm 1.2 mph1.9 kmh 30.34 in1027.4 mb - 0.00 in0.0 mm 0.00 in0.0 mm
05:20 AM 36.1°F2.3°C 30.5°F-0.8°C 80% Calm Calm -- 30.34 in1027.4 mb - 0.00 in0.0 mm 0.00 in0.0 mm
05:15 AM 36.2°F2.3°C 30.6°F-0.8°C 80% 2.3 mph ENE3.7 kmh ENE 2.3 mph3.7 kmh 30.33 in1027.1 mb - 0.00 in0.0 mm 0.00 in0.0 mm
05:10 AM 36.2°F2.3°C 30.6°F-0.8°C 80% Calm Calm -- 30.33 in1027.1 mb - 0.00 in0.0 mm 0.00 in0.0 mm
05:05 AM 36.2°F2.3°C 30.6°F-0.8°C 80% 1.2 mph E1.9 kmh E 1.2 mph1.9 kmh 30.33 in1027.1 mb - 0.00 in0.0 mm 0.00 in0.0 mm
05:00 AM 36.0°F2.2°C 30.4°F-0.9°C 80% Calm Calm 2.3 mph3.7 kmh 30.33 in1027.1 mb - 0.00 in0.0 mm 0.00 in0.0 mm
04:55 AM 35.9°F2.2°C 30.3°F-0.9°C 80% Calm Calm 1.2 mph1.9 kmh 30.33 in1027.1 mb - 0.00 in0.0 mm 0.00 in0.0 mm
04:50 AM 35.4°F1.9°C 29.8°F-1.2°C 80% Calm Calm 3.5 mph5.6 kmh 30.33 in1027.1 mb - 0.00 in0.0 mm 0.00 in0.0 mm
04:45 AM 35.2°F1.8°C 29.6°F-1.3°C 80% Calm Calm -- 30.33 in1027.1 mb - 0.00 in0.0 mm 0.00 in0.0 mm
04:40 AM 35.2°F1.8°C 29.6°F-1.3°C 80% Calm Calm 1.2 mph1.9 kmh 30.33 in1027.1 mb - 0.00 in0.0 mm 0.00 in0.0 mm
04:35 AM 35.2°F1.8°C 29.6°F-1.3°C 80% 2.3 mph E3.7 kmh E 3.5 mph5.6 kmh 30.32 in1026.8 mb - 0.00 in0.0 mm 0.00 in0.0 mm
04:30 AM 35.2°F1.8°C 29.6°F-1.3°C 80% 2.3 mph E3.7 kmh E 3.5 mph5.6 kmh 30.32 in1026.8 mb - 0.00 in0.0 mm 0.00 in0.0 mm
04:25 AM 35.3°F1.8°C 29.7°F-1.3°C 80% 1.2 mph E1.9 kmh E 3.5 mph5.6 kmh 30.32 in1026.8 mb - 0.00 in0.0 mm 0.00 in0.0 mm
04:20 AM 35.4°F1.9°C 29.8°F-1.2°C 80% 2.3 mph E3.7 kmh E 3.5 mph5.6 kmh 30.32 in1026.8 mb - 0.00 in0.0 mm 0.00 in0.0 mm
04:15 AM 35.5°F1.9°C 29.9°F-1.2°C 80% Calm Calm -- 30.32 in1026.8 mb - 0.00 in0.0 mm 0.00 in0.0 mm
04:10 AM 35.4°F1.9°C 29.8°F-1.2°C 80% 1.2 mph E1.9 kmh E 3.5 mph5.6 kmh 30.32 in1026.8 mb - 0.00 in0.0 mm 0.00 in0.0 mm
04:05 AM 35.0°F1.7°C 29.4°F-1.4°C 80% Calm Calm -- 30.32 in1026.8 mb - 0.00 in0.0 mm 0.00 in0.0 mm
04:00 AM 34.7°F1.5°C 29.2°F-1.6°C 80% Calm Calm -- 30.31 in1026.4 mb - 0.00 in0.0 mm 0.00 in0.0 mm
03:55 AM 34.5°F1.4°C 29.0°F-1.7°C 80% Calm Calm -- 30.32 in1026.8 mb - 0.00 in0.0 mm 0.00 in0.0 mm
03:50 AM 34.4°F1.3°C 28.9°F-1.7°C 80% 1.2 mph E1.9 kmh E 2.3 mph3.7 kmh 30.32 in1026.8 mb - 0.00 in0.0 mm 0.00 in0.0 mm
03:45 AM 34.3°F1.3°C 28.8°F-1.8°C 80% 2.3 mph E3.7 kmh E 3.5 mph5.6 kmh 30.32 in1026.8 mb - 0.00 in0.0 mm 0.00 in0.0 mm
03:40 AM 34.1°F1.2°C 28.6°F-1.9°C 80% 2.3 mph E3.7 kmh E 3.5 mph5.6 kmh 30.32 in1026.8 mb - 0.00 in0.0 mm 0.00 in0.0 mm
03:35 AM 33.9°F1.1°C 28.4°F-2.0°C 80% Calm Calm 2.3 mph3.7 kmh 30.32 in1026.8 mb - 0.00 in0.0 mm 0.00 in0.0 mm
03:30 AM 33.8°F1.0°C 28.0°F-2.2°C 79% Calm Calm -- 30.32 in1026.8 mb - 0.00 in0.0 mm 0.00 in0.0 mm
03:25 AM 33.8°F1.0°C 28.0°F-2.2°C 79% Calm Calm -- 30.32 in1026.8 mb - 0.00 in0.0 mm 0.00 in0.0 mm
03:20 AM 34.0°F1.1°C 28.1°F-2.2°C 79% Calm Calm -- 30.32 in1026.8 mb - 0.00 in0.0 mm 0.00 in0.0 mm
03:15 AM 34.1°F1.2°C 28.6°F-1.9°C 80% Calm Calm -- 30.32 in1026.8 mb - 0.00 in0.0 mm 0.00 in0.0 mm
03:10 AM 34.1°F1.2°C 28.3°F-2.1°C 79% Calm Calm 1.2 mph1.9 kmh 30.31 in1026.4 mb - 0.00 in0.0 mm 0.00 in0.0 mm
03:05 AM 34.3°F1.3°C 28.5°F-1.9°C 79% Calm Calm 1.2 mph1.9 kmh 30.32 in1026.8 mb - 0.00 in0.0 mm 0.00 in0.0 mm
03:00 AM 34.5°F1.4°C 28.7°F-1.8°C 79% 1.2 mph E1.9 kmh E 1.2 mph1.9 kmh 30.32 in1026.8 mb - 0.00 in0.0 mm 0.00 in0.0 mm
02:55 AM 34.5°F1.4°C 28.7°F-1.8°C 79% 2.3 mph E3.7 kmh E 3.5 mph5.6 kmh 30.32 in1026.8 mb - 0.00 in0.0 mm 0.00 in0.0 mm
02:50 AM 34.3°F1.3°C 28.5°F-1.9°C 79% Calm Calm -- 30.32 in1026.8 mb - 0.00 in0.0 mm 0.00 in0.0 mm
02:45 AM 34.3°F1.3°C 28.5°F-1.9°C 79% Calm Calm -- 30.31 in1026.4 mb - 0.00 in0.0 mm 0.00 in0.0 mm
02:40 AM 34.4°F1.3°C 28.6°F-1.9°C 79% Calm Calm -- 30.31 in1026.4 mb - 0.00 in0.0 mm 0.00 in0.0 mm
02:35 AM 34.5°F1.4°C 28.7°F-1.8°C 79% Calm Calm -- 30.31 in1026.4 mb - 0.00 in0.0 mm 0.00 in0.0 mm
02:30 AM 34.7°F1.5°C 28.9°F-1.7°C 79% Calm Calm -- 30.31 in1026.4 mb - 0.00 in0.0 mm 0.00 in0.0 mm
02:25 AM 35.0°F1.7°C 29.1°F-1.6°C 79% Calm Calm -- 30.31 in1026.4 mb - 0.00 in0.0 mm 0.00 in0.0 mm
02:20 AM 35.1°F1.7°C 29.2°F-1.6°C 79% Calm Calm -- 30.31 in1026.4 mb - 0.00 in0.0 mm 0.00 in0.0 mm
02:15 AM 35.2°F1.8°C 29.4°F-1.4°C 79% Calm Calm -- 30.31 in1026.4 mb - 0.00 in0.0 mm 0.00 in0.0 mm
02:10 AM 35.4°F1.9°C 29.5°F-1.4°C 79% Calm Calm -- 30.31 in1026.4 mb - 0.00 in0.0 mm 0.00 in0.0 mm
02:05 AM 35.6°F2.0°C 29.7°F-1.3°C 79% Calm Calm 1.2 mph1.9 kmh 30.31 in1026.4 mb - 0.00 in0.0 mm 0.00 in0.0 mm
02:00 AM 35.8°F2.1°C 29.9°F-1.2°C 79% Calm Calm 1.2 mph1.9 kmh 30.31 in1026.4 mb - 0.00 in0.0 mm 0.00 in0.0 mm
01:55 AM 36.0°F2.2°C 30.1°F-1.1°C 79% 1.2 mph E1.9 kmh E 2.3 mph3.7 kmh 30.31 in1026.4 mb - 0.00 in0.0 mm 0.00 in0.0 mm
01:50 AM 35.9°F2.2°C 30.0°F-1.1°C 79% 2.3 mph E3.7 kmh E 3.5 mph5.6 kmh 30.31 in1026.4 mb - 0.00 in0.0 mm 0.00 in0.0 mm
01:45 AM 35.9°F2.2°C 30.0°F-1.1°C 79% Calm Calm 3.5 mph5.6 kmh 30.31 in1026.4 mb - 0.00 in0.0 mm 0.00 in0.0 mm
01:40 AM 36.1°F2.3°C 30.2°F-1.0°C 79% Calm Calm -- 30.31 in1026.4 mb - 0.00 in0.0 mm 0.00 in0.0 mm
01:35 AM 36.4°F2.4°C 30.5°F-0.8°C 79% Calm Calm -- 30.31 in1026.4 mb - 0.00 in0.0 mm 0.00 in0.0 mm
01:30 AM 36.6°F2.6°C 30.7°F-0.7°C 79% Calm Calm -- 30.30 in1026.1 mb - 0.00 in0.0 mm 0.00 in0.0 mm
01:25 AM 36.6°F2.6°C 30.7°F-0.7°C 79% 2.3 mph E3.7 kmh E 3.5 mph5.6 kmh 30.30 in1026.1 mb - 0.00 in0.0 mm 0.00 in0.0 mm
01:20 AM 36.6°F2.6°C 30.7°F-0.7°C 79% 2.3 mph E3.7 kmh E 3.5 mph5.6 kmh 30.30 in1026.1 mb - 0.00 in0.0 mm 0.00 in0.0 mm
01:15 AM 36.8°F2.7°C 30.9°F-0.6°C 79% Calm Calm -- 30.30 in1026.1 mb - 0.00 in0.0 mm 0.00 in0.0 mm
01:10 AM 36.8°F2.7°C 30.9°F-0.6°C 79% 2.3 mph E3.7 kmh E 3.5 mph5.6 kmh 30.30 in1026.1 mb - 0.00 in0.0 mm 0.00 in0.0 mm
01:05 AM 36.5°F2.5°C 30.6°F-0.8°C 79% 2.3 mph SE3.7 kmh SE 3.5 mph5.6 kmh 30.30 in1026.1 mb - 0.00 in0.0 mm 0.00 in0.0 mm
01:00 AM 36.4°F2.4°C 30.5°F-0.8°C 79% Calm Calm 2.3 mph3.7 kmh 30.30 in1026.1 mb - 0.00 in0.0 mm 0.00 in0.0 mm
12:55 AM 36.5°F2.5°C 30.6°F-0.8°C 79% Calm Calm -- 30.29 in1025.7 mb - 0.00 in0.0 mm 0.00 in0.0 mm
12:50 AM 36.7°F2.6°C 30.8°F-0.7°C 79% Calm Calm -- 30.30 in1026.1 mb - 0.00 in0.0 mm 0.00 in0.0 mm
12:45 AM 37.0°F2.8°C 30.8°F-0.7°C 78% Calm Calm -- 30.30 in1026.1 mb - 0.00 in0.0 mm 0.00 in0.0 mm
12:40 AM 37.0°F2.8°C 31.1°F-0.5°C 79% Calm Calm -- 30.30 in1026.1 mb - 0.00 in0.0 mm 0.00 in0.0 mm
12:35 AM 37.1°F2.8°C 31.2°F-0.4°C 79% 2.3 mph NNE3.7 kmh NNE 3.5 mph5.6 kmh 30.30 in1026.1 mb - 0.00 in0.0 mm 0.00 in0.0 mm
12:30 AM 37.4°F3.0°C 31.5°F-0.3°C 79% 1.2 mph NW1.9 kmh NW 1.2 mph1.9 kmh 30.29 in1025.7 mb - 0.00 in0.0 mm 0.00 in0.0 mm
12:25 AM 37.9°F3.3°C 31.9°F-0.1°C 79% Calm Calm -- 30.29 in1025.7 mb - 0.00 in0.0 mm 0.00 in0.0 mm
12:20 AM 38.3°F3.5°C 32.4°F0.2°C 79% Calm Calm -- 30.29 in1025.7 mb - 0.00 in0.0 mm 0.00 in0.0 mm
12:15 AM 38.8°F3.8°C 32.8°F0.4°C 79% 2.3 mph S3.7 kmh S 2.3 mph3.7 kmh 30.29 in1025.7 mb - 0.00 in0.0 mm 0.00 in0.0 mm
12:10 AM 39.2°F4.0°C 32.9°F0.5°C 78% 2.3 mph NNW3.7 kmh NNW 3.5 mph5.6 kmh 30.29 in1025.7 mb - 0.00 in0.0 mm 0.00 in0.0 mm
12:05 AM 39.5°F4.2°C 33.2°F0.7°C 78% 2.3 mph NNE3.7 kmh NNE 3.5 mph5.6 kmh 30.29 in1025.7 mb - 0.00 in0.0 mm 0.00 in0.0 mm
12:00 AM 39.5°F4.2°C 33.2°F0.7°C 78% 2.3 mph N3.7 kmh N 3.5 mph5.6 kmh 30.29 in1025.7 mb - 0.00 in0.0 mm 0.00 in0.0 mm